Home > Products > Valid Products > TAF

000
FTUS44 KHUN 281730
TAFHSV
TAF
KHSV 281730Z 2818/2918 12011KT P6SM SCT050
     FM290100 VRB03KT P6SM SCT050
     FM291000 VRB02KT 5SM BR SCT012 BKN060
     FM291400 16008KT P6SM BKN100=



000
FTUS44 KHUN 281730
TAFMSL
TAF
KMSL 281730Z 2818/2918 16009KT P6SM SCT050
     FM290100 VRB03KT P6SM SCT050
     FM291000 VRB02KT 4SM BR SCT012 BKN060
     FM291400 17008KT P6SM BKN100=



000
FTUS44 KHUN 281730
TAFHSV
TAF
KHSV 281730Z 2818/2918 12011KT P6SM SCT050
     FM290100 VRB03KT P6SM SCT050
     FM291000 VRB02KT 5SM BR SCT012 BKN060
     FM291400 16008KT P6SM BKN100=



000
FTUS44 KHUN 281730
TAFMSL
TAF
KMSL 281730Z 2818/2918 16009KT P6SM SCT050
     FM290100 VRB03KT P6SM SCT050
     FM291000 VRB02KT 4SM BR SCT012 BKN060
     FM291400 17008KT P6SM BKN100=



000
FTUS44 KHUN 281120
TAFHSV
TAF
KHSV 281120Z 2812/2912 09003KT P6SM FEW040
     FM281500 13008KT P6SM SCT045
     FM290100 10003KT P6SM SCT050
     FM291000 12003KT 5SM BR SCT012 BKN060=



000
FTUS44 KHUN 281120
TAFMSL
TAF
KMSL 281120Z 2812/2912 13004KT P6SM SKC
     FM281500 13006KT P6SM SCT045
     FM290100 10003KT P6SM SCT050
     FM291000 12003KT 4SM BR SCT012 BKN060=



000
FTUS44 KHUN 281120
TAFMSL
TAF
KMSL 281120Z 2812/2912 13004KT P6SM FEW040
     FM281500 13006KT P6SM SCT045
     FM290100 10003KT P6SM SCT050
     FM291000 12003KT 4SM BR SCT012 BKN060=



000
FTUS44 KHUN 281120
TAFMSL
TAF
KMSL 281120Z 2812/2912 13004KT P6SM SKC
     FM281500 13006KT P6SM SCT045
     FM290100 10003KT P6SM SCT050
     FM291000 12003KT 4SM BR SCT012 BKN060=



000
FTUS44 KHUN 281120
TAFMSL
TAF
KMSL 281120Z 2812/2912 13004KT P6SM FEW040
     FM281500 13006KT P6SM SCT045
     FM290100 10003KT P6SM SCT050
     FM291000 12003KT 4SM BR SCT012 BKN060=



000
FTUS44 KHUN 281120
TAFHSV
TAF
KHSV 281120Z 2812/2912 09003KT P6SM FEW040
     FM281500 13008KT P6SM SCT045
     FM290100 10003KT P6SM SCT050
     FM291000 12003KT 5SM BR SCT012 BKN060=



000
FTUS44 KHUN 281120
TAFHSV
TAF
KHSV 281120Z 2812/2912 09003KT P6SM FEW040
     FM281500 13008KT P6SM SCT045
     FM290100 10003KT P6SM SCT050
     FM291000 12003KT 5SM BR SCT012 BKN060=



000
FTUS44 KHUN 281120
TAFHSV
TAF
KHSV 281120Z 2812/2912 09003KT P6SM SKC
     FM281500 13008KT P6SM SCT045
     FM290100 10003KT P6SM SCT050
     FM291000 12003KT 5SM BR SCT012 BKN060=



000
FTUS44 KHUN 281120
TAFMSL
TAF
KMSL 281120Z 2812/2912 13004KT P6SM SKC
     FM281500 13006KT P6SM SCT045
     FM290100 10003KT P6SM SCT050
     FM291000 12003KT 4SM BR SCT012 BKN060=



000
FTUS44 KHUN 281120
TAFHSV
TAF
KHSV 281120Z 2812/2912 09003KT P6SM SKC
     FM281500 13008KT P6SM SCT045
     FM290100 10003KT P6SM SCT050
     FM291000 12003KT 5SM BR SCT012 BKN060=



000
FTUS44 KHUN 281120
TAFMSL
TAF
KMSL 281120Z 2812/2912 13004KT P6SM FEW040
     FM281500 13006KT P6SM SCT045
     FM290100 10003KT P6SM SCT050
     FM291000 12003KT 4SM BR SCT012 BKN060=



000
FTUS44 KHUN 281120
TAFMSL
TAF
KMSL 281120Z 2812/2912 13004KT P6SM SKC
     FM281500 13006KT P6SM SCT045
     FM290100 10003KT P6SM SCT050
     FM291000 12003KT 4SM BR SCT012 BKN060=



000
FTUS44 KHUN 281120
TAFHSV
TAF
KHSV 281120Z 2812/2912 09003KT P6SM SKC
     FM281500 13008KT P6SM SCT045
     FM290100 10003KT P6SM SCT050
     FM291000 12003KT 5SM BR SCT012 BKN060=



000
FTUS44 KHUN 280520
TAFMSL
TAF
KMSL 280520Z 2806/2906 VRB03KT P6SM SKC
     FM281500 14007KT P6SM SCT050
     FM290100 VRB04KT P6SM SCT180=



000
FTUS44 KHUN 280520
TAFHSV
TAF
KHSV 280520Z 2806/2906 VRB04KT P6SM SKC
     FM281500 13008KT P6SM SCT050
     FM290100 10005KT P6SM SCT120=



000
FTUS44 KHUN 280520
TAFHSV
TAF
KHSV 280520Z 2806/2906 VRB04KT P6SM SKC
     FM281500 13008KT P6SM SCT050
     FM290100 10005KT P6SM SCT120=



000
FTUS44 KHUN 280520
TAFMSL
TAF
KMSL 280520Z 2806/2906 VRB03KT P6SM SKC
     FM281500 14007KT P6SM SCT050
     FM290100 VRB04KT P6SM SCT180=



000
FTUS44 KHUN 280520
TAFMSL
TAF
KMSL 280520Z 2806/2906 VRB03KT P6SM SKC
     FM281500 14007KT P6SM SCT050
     FM290100 VRB04KT P6SM SCT180=



000
FTUS44 KHUN 280520
TAFHSV
TAF
KHSV 280520Z 2806/2906 VRB04KT P6SM SKC
     FM281500 13008KT P6SM SCT050
     FM290100 10005KT P6SM SCT120=



000
FTUS44 KHUN 280520
TAFMSL
TAF
KMSL 280520Z 2806/2906 VRB03KT P6SM SKC
     FM281500 14007KT P6SM SCT050
     FM290100 VRB04KT P6SM SCT180=



000
FTUS44 KHUN 280520
TAFHSV
TAF
KHSV 280520Z 2806/2906 VRB04KT P6SM SKC
     FM281500 13008KT P6SM SCT050
     FM290100 10005KT P6SM SCT120=



000
FTUS44 KHUN 272325
TAFMSL
TAF
KMSL 272325Z 2800/2824 VRB05KT P6SM SKC
     FM281500 14008KT P6SM SCT050=



000
FTUS44 KHUN 272325
TAFHSV
TAF
KHSV 272325Z 2800/2824 VRB03KT P6SM SKC
     FM281500 13008KT P6SM SCT050=



000
FTUS44 KHUN 272325
TAFMSL
TAF
KMSL 272325Z 2800/2824 VRB05KT P6SM SKC
     FM281500 14008KT P6SM SCT050=



000
FTUS44 KHUN 272325
TAFHSV
TAF
KHSV 272325Z 2800/2824 VRB03KT P6SM SKC
     FM281500 13008KT P6SM SCT050=



000
FTUS44 KHUN 271722
TAFHSV
TAF
KHSV 271722Z 2718/2818 04010KT P6SM SCT050
     FM280100 VRB03KT P6SM SKC
     FM281500 13008KT P6SM SCT050=



000
FTUS44 KHUN 271722
TAFMSL
TAF
KMSL 271722Z 2718/2818 03010KT P6SM SCT050
     FM280100 VRB05KT P6SM SKC
     FM281500 14008KT P6SM SCT050=



000
FTUS44 KHUN 271722
TAFMSL
TAF
KMSL 271722Z 2718/2818 03010KT P6SM SCT050
     FM280100 VRB05KT P6SM SKC
     FM281500 14008KT P6SM SCT050=



000
FTUS44 KHUN 271722
TAFMSL
TAF
KMSL 271722Z 2718/2818 03010KT P6SM SCT050
     FM280100 VRB05KT P6SM SKC
     FM281500 14008KT P6SM SCT050=



000
FTUS44 KHUN 271722
TAFHSV
TAF
KHSV 271722Z 2718/2818 04010KT P6SM SCT050
     FM280100 VRB03KT P6SM SKC
     FM281500 13008KT P6SM SCT050=



000
FTUS44 KHUN 271722
TAFHSV
TAF
KHSV 271722Z 2718/2818 04010KT P6SM SCT050
     FM280100 VRB03KT P6SM SKC
     FM281500 13008KT P6SM SCT050=



000
FTUS44 KHUN 271722
TAFHSV
TAF
KHSV 271722Z 2718/2818 04010KT P6SM SCT050
     FM280100 VRB03KT P6SM SKC
     FM281500 13008KT P6SM SCT050=



000
FTUS44 KHUN 271722
TAFMSL
TAF
KMSL 271722Z 2718/2818 03010KT P6SM SCT050
     FM280100 VRB05KT P6SM SKC
     FM281500 14008KT P6SM SCT050=



000
FTUS44 KHUN 271120
TAFHSV
TAF
KHSV 271120Z 2712/2812 03004KT P6SM SCT050
     FM271600 04010KT P6SM SCT050
     FM280100 05003KT P6SM SKC=



000
FTUS44 KHUN 271120
TAFMSL
TAF
KMSL 271120Z 2712/2812 VRB03KT P6SM SKC
     FM271600 05008KT P6SM SCT050
     FM280100 03005KT P6SM SKC=



000
FTUS44 KHUN 271120
TAFHSV
TAF
KHSV 271120Z 2712/2812 03004KT P6SM SCT050
     FM271600 04010KT P6SM SCT050
     FM280100 05003KT P6SM SKC=



000
FTUS44 KHUN 271120
TAFMSL
TAF
KMSL 271120Z 2712/2812 VRB03KT P6SM SKC
     FM271600 05008KT P6SM SCT050
     FM280100 03005KT P6SM SKC=



000
FTUS44 KHUN 271120
TAFMSL
TAF
KMSL 271120Z 2712/2812 VRB03KT P6SM SKC
     FM271600 05008KT P6SM SCT050
     FM280100 03005KT P6SM SKC=



000
FTUS44 KHUN 271120
TAFHSV
TAF
KHSV 271120Z 2712/2812 03004KT P6SM SCT050
     FM271600 04010KT P6SM SCT050
     FM280100 05003KT P6SM SKC=



000
FTUS44 KHUN 270536
TAFHSV
TAF
KHSV 270536Z 2706/2806 02005KT P6SM SKC
     FM271600 04010KT P6SM SCT050
     FM280300 05005KT P6SM SKC=



000
FTUS44 KHUN 270536
TAFMSL
TAF
KMSL 270536Z 2706/2806 02005KT P6SM SKC
     FM271600 04010KT P6SM SCT050
     FM280200 03003KT P6SM SKC=



000
FTUS44 KHUN 270536
TAFHSV
TAF
KHSV 270536Z 2706/2806 02005KT P6SM SKC
     FM271600 04010KT P6SM SCT050
     FM280300 05005KT P6SM SKC=



000
FTUS44 KHUN 270536
TAFMSL
TAF
KMSL 270536Z 2706/2806 02005KT P6SM SKC
     FM271600 04010KT P6SM SCT050
     FM280200 03003KT P6SM SKC=



000
FTUS44 KHUN 262320
TAFHSV
TAF
KHSV 262320Z 2700/2724 02005KT P6SM SKC
     FM271800 04010KT P6SM SCT050=



000
FTUS44 KHUN 262320
TAFMSL
TAF
KMSL 262320Z 2700/2724 02005KT P6SM SKC
     FM271800 04010KT P6SM SCT050=



000
FTUS44 KHUN 262320
TAFHSV
TAF
KHSV 262320Z 2700/2724 02005KT P6SM SKC
     FM271800 04010KT P6SM SCT050=



000
FTUS44 KHUN 262320
TAFMSL
TAF
KMSL 262320Z 2700/2724 02005KT P6SM SKC
     FM271800 04010KT P6SM SCT050=



000
FTUS44 KHUN 261727
TAFMSL
TAF
KMSL 261727Z 2618/2718 36010G15KT P6SM FEW050
     FM270100 VRB03KT P6SM SCT045
     FM271500 04005KT P6SM FEW250=



000
FTUS44 KHUN 261727
TAFHSV
TAF
KHSV 261727Z 2618/2718 02010G15KT P6SM FEW040
     FM270100 VRB04KT P6SM SCT045
     FM271500 05006KT P6SM FEW250=



000
FTUS44 KHUN 261727
TAFMSL
TAF
KMSL 261727Z 2618/2718 36010G15KT P6SM FEW050
     FM270100 VRB03KT P6SM SCT045
     FM271500 04005KT P6SM FEW250=



000
FTUS44 KHUN 261727
TAFHSV
TAF
KHSV 261727Z 2618/2718 02010G15KT P6SM FEW040
     FM270100 VRB04KT P6SM SCT045
     FM271500 05006KT P6SM FEW250=



000
FTUS44 KHUN 261727
TAFMSL
TAF
KMSL 261727Z 2618/2718 36010G15KT P6SM FEW050
     FM270100 VRB03KT P6SM SCT045
     FM271500 04005KT P6SM FEW250=



000
FTUS44 KHUN 261727
TAFHSV
TAF
KHSV 261727Z 2618/2718 02010G15KT P6SM FEW040
     FM270100 VRB04KT P6SM SCT045
     FM271500 05006KT P6SM FEW250=



000
FTUS44 KHUN 261727
TAFMSL
TAF
KMSL 261727Z 2618/2718 36010G15KT P6SM FEW050
     FM270100 VRB03KT P6SM SCT045
     FM271500 04005KT P6SM FEW250=



000
FTUS44 KHUN 261727
TAFHSV
TAF
KHSV 261727Z 2618/2718 02010G15KT P6SM FEW040
     FM270100 VRB04KT P6SM SCT045
     FM271500 05006KT P6SM FEW250=



000
FTUS44 KHUN 261120
TAFMSL
TAF
KMSL 261120Z 2612/2712 31005KT P6SM SKC
     FM261500 36010KT P6SM SKC
     FM270100 VRB03KT P6SM SKC=



000
FTUS44 KHUN 261120
TAFHSV
TAF
KHSV 261120Z 2612/2712 35005KT P6SM SKC
     FM261500 36010KT P6SM SKC
     FM270300 VRB04KT P6SM SKC=



000
FTUS44 KHUN 261120
TAFHSV
TAF
KHSV 261120Z 2612/2712 35005KT P6SM SKC
     FM261500 36010KT P6SM SKC
     FM270300 VRB04KT P6SM SKC=



000
FTUS44 KHUN 261120
TAFMSL
TAF
KMSL 261120Z 2612/2712 31005KT P6SM SKC
     FM261500 36010KT P6SM SKC
     FM270100 VRB03KT P6SM SKC=



000
FTUS44 KHUN 261120
TAFHSV
TAF
KHSV 261120Z 2612/2712 35005KT P6SM SKC
     FM261500 36010KT P6SM SKC
     FM270300 VRB04KT P6SM SKC=



000
FTUS44 KHUN 261120
TAFMSL
TAF
KMSL 261120Z 2612/2712 31005KT P6SM SKC
     FM261500 36010KT P6SM SKC
     FM270100 VRB03KT P6SM SKC=



000
FTUS44 KHUN 261120
TAFMSL
TAF
KMSL 261120Z 2612/2712 31005KT P6SM SKC
     FM261500 36010KT P6SM SKC
     FM270100 VRB03KT P6SM SKC=



000
FTUS44 KHUN 261120
TAFHSV
TAF
KHSV 261120Z 2612/2712 35005KT P6SM SKC
     FM261500 36010KT P6SM SKC
     FM270300 VRB04KT P6SM SKC=



000
FTUS44 KHUN 260520
TAFMSL
TAF
KMSL 260520Z 2606/2706 31005KT P6SM SKC
     FM261500 36010KT P6SM SKC
     FM270100 VRB03KT P6SM SKC=



000
FTUS44 KHUN 260520
TAFHSV
TAF
KHSV 260520Z 2606/2706 35005KT P6SM SKC
     FM261500 36010KT P6SM SKC
     FM270300 VRB04KT P6SM SKC=



000
FTUS44 KHUN 260520
TAFHSV
TAF
KHSV 260520Z 2606/2706 35005KT P6SM SKC
     FM261500 36010KT P6SM SKC
     FM270300 VRB04KT P6SM SKC=



000
FTUS44 KHUN 260520
TAFMSL
TAF
KMSL 260520Z 2606/2706 31005KT P6SM SKC
     FM261500 36010KT P6SM SKC
     FM270100 VRB03KT P6SM SKC=



000
FTUS44 KHUN 260520
TAFMSL
TAF
KMSL 260520Z 2606/2706 31005KT P6SM SKC
     FM261500 36010KT P6SM SKC
     FM270100 VRB03KT P6SM SKC=



000
FTUS44 KHUN 260520
TAFHSV
TAF
KHSV 260520Z 2606/2706 35005KT P6SM SKC
     FM261500 36010KT P6SM SKC
     FM270300 VRB04KT P6SM SKC=



000
FTUS44 KHUN 260520
TAFHSV
TAF
KHSV 260520Z 2606/2706 35005KT P6SM SKC
     FM261500 36010KT P6SM SKC
     FM270300 VRB04KT P6SM SKC=



000
FTUS44 KHUN 260520
TAFMSL
TAF
KMSL 260520Z 2606/2706 31005KT P6SM SKC
     FM261500 36010KT P6SM SKC
     FM270100 VRB03KT P6SM SKC=



000
FTUS44 KHUN 252320
TAFMSL
TAF
KMSL 252320Z 2600/2624 31005KT P6SM SKC
     FM261800 36010KT P6SM SKC=



000
FTUS44 KHUN 252320
TAFHSV
TAF
KHSV 252320Z 2600/2624 35005KT P6SM SKC
     FM261800 36010KT P6SM SKC=



000
FTUS44 KHUN 252320
TAFHSV
TAF
KHSV 252320Z 2600/2624 35005KT P6SM SKC
     FM261800 36010KT P6SM SKC=



000
FTUS44 KHUN 252320
TAFMSL
TAF
KMSL 252320Z 2600/2624 31005KT P6SM SKC
     FM261800 36010KT P6SM SKC=



000
FTUS44 KHUN 252320
TAFHSV
TAF
KHSV 252320Z 2600/2624 35005KT P6SM SKC
     FM261800 36010KT P6SM SKC=



000
FTUS44 KHUN 252320
TAFMSL
TAF
KMSL 252320Z 2600/2624 31005KT P6SM SKC
     FM261800 36010KT P6SM SKC=



000
FTUS44 KHUN 252320
TAFHSV
TAF
KHSV 252320Z 2600/2624 35005KT P6SM SKC
     FM261800 36010KT P6SM SKC=



000
FTUS44 KHUN 252320
TAFMSL
TAF
KMSL 252320Z 2600/2624 31005KT P6SM SKC
     FM261800 36010KT P6SM SKC=



    US Dept of Commerce
    National Oceanic and Atmospheric Administration
    National Weather Service
    1325 East West Highway
    Silver Spring, MD 20910
    Page Author: NWS Internet Services Team
Disclaimer
Information Quality
Credits
Glossary
Privacy Policy
Freedom of Information Act (FOIA)
About Us
Career Opportunities